Time;durP1;ratioP1;P1;durP2;ratioP2;P2;SDS_P1;SDS_P2;PMS_P1;PMS_P2;Temp;Humidity;BMP_temperature;BMP_pressure;BME280_temperature;BME280_humidity;BME280_pressure;Samples;Min_cycle;Max_cycle;Signal;HPM_P1;HPM_P2
2022/01/18 00:01:16;;;;;;;34.03;16.93;;;1.50;1.00;;;;;;5072435;28;20206;-79
2022/01/18 00:03:44;;;;;;;25.27;14.27;;;1.50;1.00;;;;;;5072508;28;20251;-79
2022/01/18 00:06:11;;;;;;;29.63;15.70;;;1.40;1.00;;;;;;5072731;28;20234;-79
2022/01/18 00:08:38;;;;;;;31.93;13.63;;;1.40;1.00;;;;;;5072212;28;20676;-77
2022/01/18 00:11:07;;;;;;;45.07;17.67;;;1.30;1.00;;;;;;5072382;28;20669;-79
2022/01/18 00:13:40;;;;;;;36.50;18.53;;;1.10;1.00;;;;;;5071655;28;20731;-80
2022/01/18 00:16:27;;;;;;;30.13;15.50;;;1.10;99.90;;;;;;5072467;28;20202;-80
2022/01/18 00:18:55;;;;;;;33.37;13.93;;;1.20;1.00;;;;;;5072377;28;20237;-79
2022/01/18 00:21:30;;;;;;;27.37;11.10;;;1.30;1.00;;;;;;5072546;28;20199;-79
2022/01/18 00:23:58;;;;;;;24.83;13.10;;;1.30;1.00;;;;;;5072064;28;20216;-80
2022/01/18 00:26:30;;;;;;;31.03;11.83;;;1.20;1.00;;;;;;5071837;28;20720;-80
2022/01/18 00:29:03;;;;;;;23.37;11.17;;;1.10;1.00;;;;;;5072208;28;20262;-78
2022/01/18 00:31:45;;;;;;;29.23;13.73;;;1.30;99.90;;;;;;5071541;28;20551;-79
2022/01/18 00:34:19;;;;;;;22.97;12.07;;;1.30;99.90;;;;;;5072031;28;20206;-79
2022/01/18 00:37:00;;;;;;;26.83;12.20;;;1.20;99.90;;;;;;5071358;28;20225;-79
2022/01/18 00:39:27;;;;;;;20.30;10.67;;;1.30;99.90;;;;;;5071867;28;20198;-79
2022/01/18 00:41:56;;;;;;;20.57;9.20;;;1.20;99.90;;;;;;5072231;28;20203;-81
2022/01/18 00:44:23;;;;;;;31.67;10.87;;;1.10;97.70;;;;;;5071842;28;20612;-81
2022/01/18 00:46:51;;;;;;;24.87;11.43;;;1.10;99.90;;;;;;5071807;28;20286;-81
2022/01/18 00:49:18;;;;;;;21.70;11.07;;;1.20;99.90;;;;;;5072263;28;20643;-81
2022/01/18 00:51:52;;;;;;;25.93;10.90;;;1.10;99.90;;;;;;5071495;28;20202;-81
2022/01/18 00:54:23;;;;;;;34.93;17.90;;;1.10;99.90;;;;;;5072250;28;20251;-80
2022/01/18 00:56:52;;;;;;;29.10;15.67;;;1.00;99.90;;;;;;5072066;28;20201;-80
2022/01/18 00:59:21;;;;;;;22.13;12.33;;;0.90;99.90;;;;;;5071856;28;20248;-80
2022/01/18 01:01:49;;;;;;;19.63;11.47;;;0.80;99.90;;;;;;5071279;28;20263;-80
2022/01/18 01:04:18;;;;;;;24.03;9.77;;;0.90;99.90;;;;;;5071513;28;20259;-79
2022/01/18 01:06:45;;;;;;;22.97;12.30;;;0.70;99.90;;;;;;5071284;28;20281;-79
2022/01/18 01:09:12;;;;;;;22.77;11.20;;;0.70;99.90;;;;;;5071560;28;20615;-78
2022/01/18 01:11:40;;;;;;;26.50;13.57;;;1.00;99.90;;;;;;5070890;28;20207;-79
2022/01/18 01:14:12;;;;;;;25.47;11.77;;;1.10;1.00;;;;;;5071276;28;20233;-78
2022/01/18 01:16:58;;;;;;;24.83;11.40;;;0.90;99.90;;;;;;5071013;28;20636;-77
2022/01/18 01:36:14;;;;;;;18.63;9.97;;;0.90;1.00;;;;;;5071080;28;20213;-80
2022/01/18 01:44:25;;;;;;;16.70;7.93;;;0.80;1.00;;;;;;5049305;28;20209;-79
2022/01/18 01:46:53;;;;;;;18.73;9.43;;;0.70;1.00;;;;;;5066162;28;20241;-79
2022/01/18 01:49:23;;;;;;;16.63;8.00;;;0.70;1.00;;;;;;5071090;28;20206;-81
2022/01/18 01:51:50;;;;;;;17.93;9.90;;;0.70;1.00;;;;;;5071192;28;20577;-80
2022/01/18 01:54:18;;;;;;;17.57;9.93;;;0.90;81.80;;;;;;5071201;28;20205;-81
2022/01/18 01:56:45;;;;;;;18.63;10.23;;;0.90;1.00;;;;;;5070417;28;20260;-80
2022/01/18 01:59:12;;;;;;;23.73;10.80;;;0.90;1.00;;;;;;5071027;28;20660;-79
2022/01/18 02:01:42;;;;;;;12.17;9.73;;;0.90;1.00;;;;;;5070339;28;20206;-79
2022/01/18 02:04:10;;;;;;;18.03;9.63;;;1.00;1.00;;;;;;5070842;28;20210;-79
2022/01/18 02:06:38;;;;;;;19.80;10.40;;;0.90;99.90;;;;;;5070515;28;20235;-80
2022/01/18 02:09:06;;;;;;;18.07;9.10;;;0.80;88.20;;;;;;5070856;28;20205;-79
2022/01/18 02:11:33;;;;;;;19.93;10.03;;;0.80;93.90;;;;;;5073942;28;20202;-79
2022/01/18 02:14:01;;;;;;;19.27;9.57;;;0.90;99.90;;;;;;5074923;28;20202;-80
2022/01/18 02:22:12;;;;;;;14.23;8.57;;;1.00;99.90;;;;;;5038566;28;20198;-81
2022/01/18 02:24:39;;;;;;;19.30;10.53;;;1.10;99.90;;;;;;5073708;28;20641;-80
2022/01/18 02:27:06;;;;;;;20.80;9.60;;;1.10;6.50;;;;;;5074516;28;20295;-80
2022/01/18 02:29:33;;;;;;;13.50;8.80;;;1.20;1.00;;;;;;5074249;28;20203;-81
2022/01/18 02:32:00;;;;;;;13.70;9.07;;;1.00;1.00;;;;;;5074541;28;20202;-81
2022/01/18 02:34:27;;;;;;;17.87;7.97;;;0.90;1.00;;;;;;5074113;28;20331;-80
2022/01/18 02:36:57;;;;;;;24.97;10.53;;;0.90;1.00;;;;;;5074382;28;20202;-80
2022/01/18 02:39:27;;;;;;;18.43;8.80;;;0.80;1.00;;;;;;5074140;28;20209;-80
2022/01/18 02:41:56;;;;;;;17.50;8.70;;;1.00;1.00;;;;;;5074341;28;20246;-80
2022/01/18 02:44:24;;;;;;;15.97;10.13;;;1.00;1.00;;;;;;5074145;28;20725;-79
2022/01/18 02:46:51;;;;;;;15.30;9.20;;;1.00;1.00;;;;;;5074365;28;20234;-78
2022/01/18 02:49:18;;;;;;;15.03;9.33;;;0.90;1.00;;;;;;5074035;28;20271;-78
2022/01/18 02:51:46;;;;;;;19.67;9.27;;;0.90;1.00;;;;;;5073697;28;20268;-79
2022/01/18 02:54:15;;;;;;;21.27;8.43;;;0.90;1.00;;;;;;5073796;28;20202;-80
2022/01/18 02:56:47;;;;;;;12.07;8.30;;;0.90;1.00;;;;;;5073693;28;21177;-80
2022/01/18 02:59:21;;;;;;;21.80;9.83;;;0.80;1.00;;;;;;5073734;28;20224;-80
2022/01/18 03:04:38;;;;;;;17.37;8.77;;;0.60;1.00;;;;;;5073553;28;20213;-82
2022/01/18 03:07:05;;;;;;;13.50;8.07;;;0.50;1.00;;;;;;5073860;28;20233;-82
2022/01/18 03:09:32;;;;;;;18.47;9.67;;;0.60;99.90;;;;;;5073651;28;20202;-82
2022/01/18 03:12:01;;;;;;;18.40;10.90;;;0.70;99.90;;;;;;5074170;28;20257;-80
2022/01/18 03:14:28;;;;;;;16.07;8.93;;;0.80;1.00;;;;;;5074035;28;20206;-80
2022/01/18 03:16:55;;;;;;;15.43;8.93;;;0.70;99.90;;;;;;5075798;28;20198;-81
2022/01/18 03:19:23;;;;;;;16.60;10.13;;;0.70;99.90;;;;;;5079242;28;20206;-79
2022/01/18 03:21:51;;;;;;;13.33;9.90;;;0.80;99.90;;;;;;5078093;28;20198;-80
2022/01/18 03:24:42;;;;;;;21.53;8.60;;;0.70;1.00;;;;;;5077410;28;20260;-81
2022/01/18 03:29:55;;;;;;;14.27;9.13;;;0.70;1.00;;;;;;5073325;28;20795;-81
2022/01/18 03:32:22;;;;;;;18.83;9.00;;;0.80;26.10;;;;;;5074033;28;20216;-80
2022/01/18 03:34:49;;;;;;;17.70;9.67;;;1.00;99.90;;;;;;5073431;28;20665;-80
2022/01/18 03:37:16;;;;;;;17.77;9.90;;;1.00;95.90;;;;;;5072846;28;20271;-80
2022/01/18 03:39:43;;;;;;;24.77;10.13;;;1.00;1.00;;;;;;5072777;28;20206;-80
2022/01/18 03:42:34;;;;;;;17.80;10.33;;;0.70;1.00;;;;;;5073515;28;20202;-80
2022/01/18 03:45:04;;;;;;;18.90;10.57;;;0.80;1.00;;;;;;5073010;28;20206;-80
2022/01/18 03:47:31;;;;;;;23.13;9.47;;;0.70;1.00;;;;;;5072660;28;20245;-79
2022/01/18 03:49:58;;;;;;;27.53;9.53;;;0.60;1.00;;;;;;5073039;28;20252;-79
2022/01/18 03:52:25;;;;;;;29.50;10.23;;;0.50;99.90;;;;;;5072268;28;20613;-79
2022/01/18 03:54:53;;;;;;;14.53;9.53;;;0.50;99.90;;;;;;5072905;28;20719;-80
2022/01/18 03:57:22;;;;;;;16.23;9.53;;;0.70;1.00;;;;;;5073318;28;20202;-79
2022/01/18 03:59:49;;;;;;;18.83;10.40;;;0.90;1.00;;;;;;5072792;28;20210;-79
2022/01/18 04:02:17;;;;;;;15.77;9.10;;;0.90;1.00;;;;;;5072749;28;20720;-80
2022/01/18 04:04:44;;;;;;;19.67;9.47;;;1.10;1.00;;;;;;5072716;28;20712;-79
2022/01/18 04:07:12;;;;;;;13.20;9.07;;;1.20;1.00;;;;;;5072603;28;20234;-78
2022/01/18 04:09:39;;;;;;;18.40;10.27;;;1.00;99.90;;;;;;5072643;28;20267;-78
2022/01/18 04:12:07;;;;;;;15.60;10.17;;;0.90;99.90;;;;;;5072563;28;20206;-78
2022/01/18 04:14:36;;;;;;;15.73;9.30;;;0.90;99.90;;;;;;5072213;28;20206;-79
2022/01/18 04:17:10;;;;;;;15.30;8.87;;;1.00;99.90;;;;;;5072513;28;20206;-79
2022/01/18 04:27:58;;;;;;;16.20;8.93;;;0.90;40.50;;;;;;5072512;28;20233;-79
2022/01/18 04:30:27;;;;;;;13.73;7.50;;;1.00;1.00;;;;;;5071831;28;20251;-78
2022/01/18 04:32:54;;;;;;;9.47;6.73;;;0.80;1.00;;;;;;5072770;28;20610;-80
2022/01/18 04:35:22;;;;;;;13.40;7.47;;;0.90;1.00;;;;;;5072749;28;20228;-80
2022/01/18 04:37:48;;;;;;;10.17;6.87;;;1.00;1.00;;;;;;5104988;28;20255;-81
2022/01/18 04:40:18;;;;;;;19.63;10.13;;;1.00;1.00;;;;;;5072065;28;20205;-81
2022/01/18 04:48:27;;;;;;;24.10;7.23;;;0.50;1.00;;;;;;5071704;28;20598;-77
2022/01/18 04:50:54;;;;;;;24.93;7.80;;;0.30;1.00;;;;;;5071362;28;20657;-78
2022/01/18 04:53:21;;;;;;;11.67;7.90;;;0.20;92.50;;;;;;5072199;28;20259;-77
2022/01/18 04:55:54;;;;;;;18.70;7.90;;;0.30;99.90;;;;;;5071758;28;20251;-77
2022/01/18 04:58:21;;;;;;;13.40;8.27;;;0.60;1.00;;;;;;5071922;28;20208;-77
2022/01/18 05:00:50;;;;;;;17.27;9.00;;;0.70;1.00;;;;;;5071300;28;20206;-77
2022/01/18 05:03:18;;;;;;;14.63;9.50;;;0.70;1.00;;;;;;5071570;28;20289;-77
2022/01/18 05:05:45;;;;;;;16.97;9.13;;;0.80;99.90;;;;;;5071110;28;20300;-76
2022/01/18 05:08:13;;;;;;;19.83;7.90;;;0.80;99.90;;;;;;5071238;28;20237;-77
2022/01/18 05:10:41;;;;;;;15.77;7.83;;;0.80;1.00;;;;;;5071107;28;20199;-79
2022/01/18 05:13:19;;;;;;;15.63;7.87;;;0.90;1.00;;;;;;5071226;28;20731;-80
2022/01/18 05:15:51;;;;;;;14.20;8.07;;;0.90;1.00;;;;;;5070949;28;20568;-78
2022/01/18 05:21:18;;;;;;;19.60;9.57;;;1.00;1.00;;;;;;5071167;28;20697;-78
2022/01/18 05:23:44;;;;;;;17.73;8.00;;;1.00;1.00;;;;;;5070654;28;20626;-77
2022/01/18 05:26:11;;;;;;;16.43;9.60;;;0.80;1.00;;;;;;5070791;28;20205;-78
2022/01/18 05:28:38;;;;;;;21.53;9.50;;;1.00;1.00;;;;;;5071017;28;20206;-78
2022/01/18 05:31:05;;;;;;;18.17;8.30;;;0.90;1.00;;;;;;5071244;28;20202;-78
2022/01/18 05:33:34;;;;;;;16.20;8.97;;;0.70;1.00;;;;;;5070477;28;20198;-77
2022/01/18 05:36:01;;;;;;;12.40;7.73;;;0.70;1.00;;;;;;5070619;28;20198;-78
2022/01/18 05:38:29;;;;;;;20.23;10.13;;;1.00;1.00;;;;;;5070371;28;20219;-78
2022/01/18 05:40:56;;;;;;;14.60;8.50;;;1.00;1.00;;;;;;5071045;28;20205;-78
2022/01/18 05:43:23;;;;;;;16.30;8.80;;;0.90;1.00;;;;;;5071143;28;20202;-78
2022/01/18 05:45:50;;;;;;;15.90;7.43;;;0.90;1.00;;;;;;5070650;28;20210;-76
2022/01/18 05:48:17;;;;;;;13.30;7.83;;;0.70;1.00;;;;;;5070637;28;20240;-76
2022/01/18 05:50:46;;;;;;;15.43;9.47;;;0.80;1.00;;;;;;5070847;28;20260;-78
2022/01/18 05:53:13;;;;;;;18.50;9.90;;;1.00;1.00;;;;;;5070811;28;20271;-78
2022/01/18 05:55:40;;;;;;;17.70;11.77;;;1.10;1.00;;;;;;5069955;28;20746;-79
2022/01/18 05:58:07;;;;;;;14.67;9.00;;;1.10;1.00;;;;;;5070518;28;20213;-80
2022/01/18 06:00:37;;;;;;;17.10;9.27;;;1.10;1.00;;;;;;5102404;28;20217;-79
2022/01/18 06:03:12;;;;;;;13.93;7.53;;;0.90;1.00;;;;;;5070699;28;20202;-79
2022/01/18 06:08:25;;;;;;;21.50;10.60;;;0.90;1.00;;;;;;5071472;28;20240;-79
2022/01/18 06:10:53;;;;;;;23.03;9.23;;;0.90;1.00;;;;;;5071546;28;20210;-77
2022/01/18 06:13:20;;;;;;;13.47;7.60;;;0.80;1.00;;;;;;5070882;28;20624;-77
2022/01/18 06:15:47;;;;;;;11.23;8.10;;;0.70;1.00;;;;;;5070376;28;20255;-77
2022/01/18 06:18:14;;;;;;;13.43;9.23;;;0.80;1.00;;;;;;5070306;28;20263;-77
2022/01/18 06:20:43;;;;;;;21.20;19.00;;;1.00;1.00;;;;;;5070347;28;20206;-77
2022/01/18 06:23:10;;;;;;;10.70;7.80;;;1.00;1.00;;;;;;5070522;28;20240;-79
2022/01/18 06:25:39;;;;;;;10.70;7.63;;;1.10;1.00;;;;;;5070123;28;20202;-80
2022/01/18 06:28:06;;;;;;;11.10;6.63;;;1.10;1.00;;;;;;5070388;28;20293;-77
2022/01/18 06:30:33;;;;;;;13.33;7.57;;;1.10;1.00;;;;;;5069907;28;20259;-76
2022/01/18 06:33:00;;;;;;;11.83;7.30;;;1.70;1.00;;;;;;5070217;28;20256;-75
2022/01/18 06:35:27;;;;;;;12.43;6.50;;;1.50;99.90;;;;;;5070238;28;20207;-76
2022/01/18 06:37:54;;;;;;;8.63;5.17;;;1.20;99.90;;;;;;5070637;28;20203;-78
2022/01/18 06:40:21;;;;;;;8.67;6.20;;;1.10;99.90;;;;;;5070693;28;20251;-78
2022/01/18 06:42:49;;;;;;;11.63;9.83;;;1.10;99.90;;;;;;5070381;28;20249;-75
2022/01/18 06:45:16;;;;;;;9.43;6.37;;;1.00;99.90;;;;;;5070033;28;20202;-77
2022/01/18 06:47:44;;;;;;;12.97;6.93;;;1.20;1.00;;;;;;5070054;28;20233;-76
2022/01/18 06:50:11;;;;;;;13.07;7.13;;;1.20;1.00;;;;;;5070221;28;20198;-77
2022/01/18 06:52:38;;;;;;;9.23;5.43;;;1.10;1.00;;;;;;5069967;28;20285;-77
2022/01/18 06:55:07;;;;;;;10.97;6.47;;;1.00;1.00;;;;;;5070393;28;20234;-77
2022/01/18 06:57:34;;;;;;;12.10;6.87;;;1.00;1.00;;;;;;5073076;28;20247;-77
2022/01/18 07:00:05;;;;;;;13.27;11.77;;;1.10;1.00;;;;;;5073668;28;20210;-78
2022/01/18 07:02:32;;;;;;;8.03;6.10;;;1.20;1.00;;;;;;5073298;28;20271;-79
2022/01/18 07:04:59;;;;;;;9.27;5.90;;;1.20;1.00;;;;;;5073831;28;20735;-77
2022/01/18 07:07:26;;;;;;;8.37;5.93;;;1.10;99.90;;;;;;5073417;28;20287;-77
2022/01/18 07:09:53;;;;;;;6.17;5.30;;;1.00;1.00;;;;;;5073780;28;20261;-74
2022/01/18 07:12:22;;;;;;;8.13;5.17;;;0.90;1.00;;;;;;5073960;28;20213;-79
2022/01/18 07:14:49;;;;;;;9.53;6.63;;;0.80;1.00;;;;;;5074754;28;20289;-80
2022/01/18 07:17:17;;;;;;;13.30;6.27;;;0.90;1.00;;;;;;5075260;28;20214;-79
2022/01/18 07:19:44;;;;;;;6.83;4.43;;;0.70;1.00;;;;;;5079282;28;20268;-77
2022/01/18 07:22:11;;;;;;;9.43;6.33;;;0.70;1.00;;;;;;5083319;28;20202;-76
2022/01/18 07:24:41;;;;;;;10.37;6.43;;;0.60;1.00;;;;;;5090456;28;20233;-76
2022/01/18 07:27:10;;;;;;;12.00;8.43;;;0.60;1.00;;;;;;5077611;28;20607;-76
2022/01/18 07:29:38;;;;;;;7.77;4.73;;;0.50;1.00;;;;;;5092421;28;20259;-75
2022/01/18 07:32:07;;;;;;;9.37;7.03;;;0.70;1.00;;;;;;5085235;28;20665;-82
2022/01/18 07:34:40;;;;;;;8.63;6.67;;;0.90;1.00;;;;;;5079032;28;20214;-81
2022/01/18 07:37:09;;;;;;;9.57;5.97;;;1.00;1.00;;;;;;5073292;28;20305;-81
2022/01/18 07:39:36;;;;;;;8.60;5.13;;;0.90;1.00;;;;;;5077490;28;20290;-76
2022/01/18 07:42:04;;;;;;;9.57;5.57;;;0.80;1.00;;;;;;5082215;28;20280;-77
2022/01/18 07:44:31;;;;;;;8.10;5.23;;;0.80;1.00;;;;;;5084914;28;20263;-77
2022/01/18 07:46:58;;;;;;;10.30;6.27;;;0.90;1.00;;;;;;5083541;28;20254;-77
2022/01/18 07:49:25;;;;;;;12.17;8.00;;;0.90;1.00;;;;;;5092871;28;20618;-77
2022/01/18 07:51:54;;;;;;;8.00;6.47;;;0.90;1.00;;;;;;5074913;28;20259;-77
2022/01/18 07:54:21;;;;;;;19.60;10.70;;;0.80;99.90;;;;;;5073116;28;20210;-78
2022/01/18 07:56:48;;;;;;;9.97;5.70;;;0.90;1.00;;;;;;5092175;28;20201;-78
2022/01/18 07:59:15;;;;;;;15.40;6.20;;;0.80;1.00;;;;;;5092885;28;20572;-77
2022/01/18 08:01:42;;;;;;;7.47;5.70;;;0.70;99.90;;;;;;5090882;28;20595;-77
2022/01/18 08:04:10;;;;;;;15.27;7.33;;;0.60;99.90;;;;;;5086160;28;20762;-78
2022/01/18 08:06:37;;;;;;;9.53;6.77;;;0.60;99.90;;;;;;5077869;28;20206;-77
2022/01/18 08:09:06;;;;;;;9.23;5.47;;;0.70;99.90;;;;;;5084415;28;20233;-77
2022/01/18 08:11:33;;;;;;;14.40;7.27;;;0.60;99.90;;;;;;5088985;28;20247;-78
2022/01/18 08:14:01;;;;;;;8.40;6.03;;;0.40;99.90;;;;;;5075483;28;20218;-78
2022/01/18 08:19:09;;;;;;;8.93;6.93;;;0.60;1.00;;;;;;5071144;28;20255;-79
2022/01/18 08:21:36;;;;;;;10.50;6.17;;;0.80;1.00;;;;;;5079701;28;20251;-77
2022/01/18 08:24:05;;;;;;;9.63;7.10;;;0.90;1.00;;;;;;5088679;28;20218;-78
2022/01/18 08:26:32;;;;;;;9.03;6.03;;;1.10;99.90;;;;;;5071304;28;20206;-78
2022/01/18 08:28:59;;;;;;;11.77;9.83;;;1.00;99.90;;;;;;5075368;28;20233;-79
2022/01/18 08:31:26;;;;;;;12.10;7.23;;;1.00;99.90;;;;;;5074936;28;20213;-78
2022/01/18 08:33:53;;;;;;;19.17;15.13;;;1.10;99.90;;;;;;5084712;28;20676;-78
2022/01/18 08:36:20;;;;;;;14.97;6.83;;;1.00;99.90;;;;;;5091004;28;20205;-78
2022/01/18 08:38:47;;;;;;;12.27;5.93;;;1.10;99.90;;;;;;5084718;28;20209;-78
2022/01/18 08:41:17;;;;;;;12.37;8.63;;;1.10;99.90;;;;;;5077335;28;20251;-78
2022/01/18 08:43:43;;;;;;;14.67;7.73;;;1.20;72.80;;;;;;5079648;28;20681;-78
2022/01/18 08:46:11;;;;;;;11.30;6.83;;;1.10;23.20;;;;;;5090766;28;20711;-78
2022/01/18 08:48:39;;;;;;;15.10;7.27;;;1.10;44.40;;;;;;5091455;28;20233;-78
2022/01/18 08:51:06;;;;;;;10.87;7.93;;;1.20;27.30;;;;;;5085206;28;20209;-77
2022/01/18 08:53:35;;;;;;;11.27;7.40;;;1.10;50.60;;;;;;5083987;28;20206;-78
2022/01/18 08:56:02;;;;;;;13.63;8.90;;;1.10;21.30;;;;;;5089993;28;20209;-78
2022/01/18 08:58:31;;;;;;;19.00;16.07;;;1.20;21.30;;;;;;5088491;28;20201;-77
2022/01/18 09:00:58;;;;;;;15.03;12.33;;;1.20;81.50;;;;;;5091783;28;20210;-78
2022/01/18 09:03:26;;;;;;;13.50;9.57;;;1.30;77.30;;;;;;5090989;28;20243;-78
2022/01/18 09:05:53;;;;;;;13.93;8.97;;;1.50;13.80;;;;;;5091714;28;20264;-77
2022/01/18 09:08:21;;;;;;;11.20;7.70;;;1.60;1.00;;;;;;5091371;28;20310;-77
2022/01/18 09:10:48;;;;;;;12.07;8.13;;;1.50;1.00;;;;;;5091084;28;20201;-77
2022/01/18 09:13:17;;;;;;;12.53;8.50;;;1.50;1.00;;;;;;5091152;28;20631;-77
2022/01/18 09:15:45;;;;;;;12.47;7.03;;;1.50;1.00;;;;;;5091207;28;20262;-78
2022/01/18 09:18:12;;;;;;;12.03;7.53;;;1.60;1.00;;;;;;5091282;28;20209;-78
2022/01/18 09:20:40;;;;;;;8.40;6.80;;;1.40;1.00;;;;;;5089805;28;20193;-80
2022/01/18 09:23:08;;;;;;;10.27;7.37;;;1.50;1.00;;;;;;5090593;28;20209;-78
2022/01/18 09:25:36;;;;;;;9.90;7.70;;;1.60;1.00;;;;;;5090716;28;20258;-78
2022/01/18 09:28:03;;;;;;;11.80;7.70;;;1.70;1.00;;;;;;5091478;28;20229;-78
2022/01/18 09:30:31;;;;;;;18.30;10.53;;;1.70;1.00;;;;;;5090778;28;20255;-78
2022/01/18 09:33:00;;;;;;;16.83;9.53;;;1.40;1.00;;;;;;5087056;28;20202;-78
2022/01/18 09:35:28;;;;;;;17.70;8.70;;;1.40;1.00;;;;;;5087706;28;20628;-78
2022/01/18 09:37:55;;;;;;;11.60;8.10;;;1.30;1.00;;;;;;5088583;28;20627;-78
2022/01/18 09:40:23;;;;;;;11.83;8.63;;;1.30;1.00;;;;;;5090371;28;20214;-77
2022/01/18 09:42:59;;;;;;;10.57;7.30;;;1.00;1.00;;;;;;5091376;28;20202;-78
2022/01/18 09:45:28;;;;;;;14.10;8.77;;;1.30;99.90;;;;;;5086691;28;20258;-78
2022/01/18 09:47:56;;;;;;;12.43;8.77;;;1.50;99.90;;;;;;5090769;28;20577;-79
2022/01/18 09:50:29;;;;;;;14.60;9.33;;;1.60;1.00;;;;;;5080793;28;20208;-78
2022/01/18 09:52:58;;;;;;;12.90;8.23;;;1.70;1.00;;;;;;5080665;28;20259;-78
2022/01/18 09:55:27;;;;;;;15.07;9.57;;;1.70;1.00;;;;;;5087717;28;20573;-77
2022/01/18 09:57:55;;;;;;;18.70;12.57;;;1.80;1.00;;;;;;5085327;28;20213;-77
2022/01/18 10:00:24;;;;;;;15.50;9.17;;;1.60;1.00;;;;;;5079148;28;20236;-78
2022/01/18 10:02:51;;;;;;;19.13;11.20;;;1.60;1.00;;;;;;5070500;28;20209;-77
2022/01/18 10:05:25;;;;;;;24.73;15.40;;;1.60;1.00;;;;;;5070197;28;20202;-77
2022/01/18 10:08:00;;;;;;;14.63;11.57;;;1.70;1.00;;;;;;5070811;28;20194;-78
2022/01/18 10:10:38;;;;;;;12.60;9.20;;;1.70;1.00;;;;;;5070381;28;20263;-77
2022/01/18 10:13:06;;;;;;;14.40;8.73;;;1.90;1.00;;;;;;5070338;28;20209;-78
2022/01/18 10:15:34;;;;;;;11.00;8.17;;;1.80;1.00;;;;;;5069712;28;20209;-76
2022/01/18 10:18:06;;;;;;;12.10;8.80;;;1.90;1.00;;;;;;5070899;28;20217;-77
2022/01/18 10:20:49;;;;;;;12.47;9.27;;;2.10;1.00;;;;;;5070423;28;20236;-77
2022/01/18 10:23:23;;;;;;;14.17;8.57;;;2.20;1.00;;;;;;5070136;28;20206;-77
2022/01/18 10:25:51;;;;;;;14.57;8.70;;;2.20;1.00;;;;;;5070838;28;20210;-78
2022/01/18 10:28:33;;;;;;;14.20;9.80;;;2.20;1.00;;;;;;5070785;28;20280;-77
2022/01/18 10:31:05;;;;;;;13.37;10.43;;;2.30;1.00;;;;;;5070858;28;20263;-80
2022/01/18 10:33:37;;;;;;;10.57;8.57;;;2.30;1.00;;;;;;5074368;28;20213;-81
2022/01/18 10:36:12;;;;;;;15.43;9.50;;;2.40;1.00;;;;;;5074577;28;20256;-80
2022/01/18 10:38:40;;;;;;;15.20;9.07;;;2.30;1.00;;;;;;5076822;28;20201;-81
2022/01/18 10:41:24;;;;;;;12.33;9.57;;;2.20;1.00;;;;;;5074290;28;20198;-78
2022/01/18 10:44:04;;;;;;;11.80;8.83;;;2.30;1.00;;;;;;5074440;28;20241;-80
2022/01/18 10:46:35;;;;;;;12.93;8.90;;;2.20;1.00;;;;;;5073878;28;20206;-79
2022/01/18 10:49:02;;;;;;;16.27;10.73;;;2.20;1.00;;;;;;5073926;28;20773;-79
2022/01/18 10:51:32;;;;;;;13.07;9.57;;;2.40;1.00;;;;;;5073366;28;20283;-80
2022/01/18 10:54:00;;;;;;;17.10;10.87;;;2.40;1.00;;;;;;5082900;28;20210;-80
2022/01/18 10:56:38;;;;;;;15.63;9.67;;;2.60;1.00;;;;;;5085453;28;20206;-79
2022/01/18 10:59:05;;;;;;;13.63;11.03;;;2.30;1.00;;;;;;5093826;28;20620;-79
2022/01/18 11:01:32;;;;;;;15.23;9.77;;;2.30;1.00;;;;;;5093159;28;20254;-78
2022/01/18 11:04:12;;;;;;;20.67;11.17;;;2.40;1.00;;;;;;5093778;28;20300;-78
2022/01/18 11:06:42;;;;;;;11.50;9.20;;;2.50;1.00;;;;;;5092915;28;20724;-79
2022/01/18 11:09:13;;;;;;;18.57;10.30;;;2.60;1.00;;;;;;5090703;28;20244;-78
2022/01/18 11:11:47;;;;;;;16.27;11.50;;;2.60;1.00;;;;;;5093286;28;20197;-79
2022/01/18 11:14:18;;;;;;;16.90;12.03;;;2.50;1.00;;;;;;5093767;28;20624;-79
2022/01/18 11:16:47;;;;;;;16.20;11.03;;;2.60;1.00;;;;;;5093397;28;20266;-80
2022/01/18 11:19:29;;;;;;;16.37;11.30;;;2.70;1.00;;;;;;5086858;28;20205;-78
2022/01/18 11:22:00;;;;;;;41.50;28.47;;;2.80;1.00;;;;;;5093530;28;20251;-75
2022/01/18 11:24:28;;;;;;;22.50;13.83;;;2.70;1.00;;;;;;5087623;28;20213;-79
2022/01/18 11:26:57;;;;;;;16.83;11.30;;;2.60;1.00;;;;;;5092549;28;20197;-80
2022/01/18 11:29:26;;;;;;;18.60;12.87;;;2.60;1.00;;;;;;5086292;28;20320;-80
2022/01/18 11:31:56;;;;;;;16.40;11.90;;;2.70;1.00;;;;;;5093650;28;20220;-79
2022/01/18 11:34:30;;;;;;;16.37;10.50;;;2.80;1.00;;;;;;5086279;28;20311;-78
2022/01/18 11:37:09;;;;;;;16.93;12.47;;;2.60;1.00;;;;;;5082798;28;20261;-78
2022/01/18 11:39:36;;;;;;;17.60;11.07;;;2.90;1.00;;;;;;5079450;28;20205;-79
2022/01/18 11:42:08;;;;;;;12.40;10.10;;;2.90;1.00;;;;;;5088737;28;20672;-78
2022/01/18 11:44:35;;;;;;;14.57;11.30;;;3.00;1.00;;;;;;5092109;28;20250;-77
2022/01/18 11:47:05;;;;;;;17.70;11.10;;;3.00;1.00;;;;;;5093395;28;20197;-81
2022/01/18 11:49:33;;;;;;;17.77;14.00;;;3.10;1.00;;;;;;5073241;28;20320;-76
2022/01/18 11:52:05;;;;;;;17.30;12.37;;;3.10;1.00;;;;;;5073054;28;23383;-78
2022/01/18 11:54:41;;;;;;;16.23;12.53;;;2.80;1.00;;;;;;5076776;28;20198;-78
2022/01/18 11:57:34;;;;;;;20.37;11.53;;;3.00;1.00;;;;;;5078459;28;20208;-76
2022/01/18 12:00:20;;;;;;;16.07;11.87;;;2.90;1.00;;;;;;5092559;28;20218;-78
2022/01/18 12:02:49;;;;;;;27.63;16.83;;;2.80;1.00;;;;;;5092444;28;20206;-77
2022/01/18 12:05:19;;;;;;;18.60;12.37;;;2.40;1.00;;;;;;5092531;28;20206;-77
2022/01/18 12:08:05;;;;;;;19.87;15.73;;;2.20;1.00;;;;;;5092269;28;20633;-77
2022/01/18 12:10:49;;;;;;;16.53;11.77;;;2.50;1.00;;;;;;5091896;28;20267;-77
2022/01/18 12:13:39;;;;;;;18.23;12.90;;;2.60;1.00;;;;;;5092534;28;20212;-77
2022/01/18 12:16:11;;;;;;;16.63;13.53;;;2.90;1.00;;;;;;5082235;28;20656;-77
2022/01/18 12:18:51;;;;;;;17.07;13.03;;;3.20;1.00;;;;;;5071794;28;20212;-78
2022/01/18 12:21:22;;;;;;;19.33;12.67;;;3.30;1.00;;;;;;5072762;28;20198;-77
2022/01/18 12:23:50;;;;;;;18.93;12.10;;;3.30;1.00;;;;;;5092630;28;20240;-78
2022/01/18 12:26:39;;;;;;;25.47;15.47;;;3.30;1.00;;;;;;5079361;28;20669;-78
2022/01/18 12:29:35;;;;;;;18.37;13.40;;;3.20;1.00;;;;;;5083113;28;20584;-78
2022/01/18 12:32:28;;;;;;;18.07;10.53;;;3.20;1.00;;;;;;5082467;28;20297;-76
2022/01/18 12:35:02;;;;;;;16.40;12.13;;;3.20;1.00;;;;;;5090061;28;20290;-76
2022/01/18 12:37:35;;;;;;;23.33;14.93;;;2.70;1.00;;;;;;5091295;28;20214;-78
2022/01/18 12:40:21;;;;;;;18.13;13.33;;;2.90;1.00;;;;;;5075870;28;20214;-78
2022/01/18 12:45:47;;;;;;;19.27;12.83;;;3.20;1.00;;;;;;5078764;28;20213;-76
2022/01/18 12:48:14;;;;;;;17.20;12.33;;;3.10;1.00;;;;;;5075096;28;20202;-77
2022/01/18 12:50:45;;;;;;;20.20;14.37;;;3.20;1.00;;;;;;5078657;28;20243;-77
2022/01/18 12:53:13;;;;;;;18.77;14.30;;;3.40;1.00;;;;;;5091306;28;20247;-78
2022/01/18 12:55:44;;;;;;;19.93;13.20;;;3.20;1.00;;;;;;5076604;28;20209;-79
2022/01/18 12:58:13;;;;;;;21.70;13.13;;;3.30;1.00;;;;;;5091610;28;20232;-78
2022/01/18 13:00:45;;;;;;;28.73;18.57;;;3.40;1.00;;;;;;5088068;28;20217;-77
2022/01/18 13:03:17;;;;;;;20.23;14.63;;;3.20;1.00;;;;;;5080421;28;20684;-78
2022/01/18 13:05:46;;;;;;;22.33;13.13;;;3.10;1.00;;;;;;5088418;28;20212;-77
2022/01/18 13:08:16;;;;;;;24.43;15.27;;;2.80;1.00;;;;;;5090478;28;20274;-76
2022/01/18 13:10:46;;;;;;;20.77;13.57;;;2.90;1.00;;;;;;5086591;28;20265;-76
2022/01/18 13:13:15;;;;;;;21.43;14.07;;;3.10;1.00;;;;;;5091159;28;20262;-75
2022/01/18 13:15:52;;;;;;;20.83;14.63;;;3.20;1.00;;;;;;5089849;28;20201;-76
2022/01/18 13:24:04;;;;;;;21.87;13.80;;;3.00;1.00;;;;;;5090737;28;20252;-78
2022/01/18 13:26:36;;;;;;;24.30;17.37;;;3.30;1.00;;;;;;5090514;28;20273;-78
2022/01/18 13:29:14;;;;;;;23.47;15.60;;;3.40;1.00;;;;;;5078705;28;20317;-78
2022/01/18 13:31:45;;;;;;;23.63;15.33;;;3.30;1.00;;;;;;5090149;28;20198;-78
2022/01/18 13:34:14;;;;;;;28.13;20.47;;;3.40;1.00;;;;;;5090971;28;20264;-77
2022/01/18 13:36:52;;;;;;;23.30;15.07;;;3.30;1.00;;;;;;5090836;28;20276;-77
2022/01/18 13:39:28;;;;;;;21.40;14.73;;;3.30;1.00;;;;;;5091066;28;20262;-77
2022/01/18 13:41:58;;;;;;;25.23;14.30;;;2.90;1.00;;;;;;5090884;28;20592;-78
2022/01/18 13:44:26;;;;;;;25.43;16.73;;;3.00;1.00;;;;;;5089360;28;20197;-76
2022/01/18 13:46:53;;;;;;;20.67;14.17;;;3.30;1.00;;;;;;5090627;28;20208;-77
2022/01/18 13:49:24;;;;;;;26.40;15.83;;;3.40;1.00;;;;;;5084980;28;20276;-77
2022/01/18 13:52:01;;;;;;;24.70;16.63;;;3.40;1.00;;;;;;5076828;28;20202;-76
2022/01/18 13:54:42;;;;;;;29.03;16.97;;;3.50;1.00;;;;;;5087939;28;20741;-76
2022/01/18 13:57:10;;;;;;;25.50;16.17;;;3.40;1.00;;;;;;5087117;28;20259;-76
2022/01/18 13:59:37;;;;;;;20.17;14.93;;;3.40;1.00;;;;;;5090537;28;20201;-76
2022/01/18 14:02:14;;;;;;;26.17;15.83;;;3.50;1.00;;;;;;5090353;28;20286;-79
2022/01/18 14:04:42;;;;;;;22.83;16.23;;;3.60;1.00;;;;;;5090129;28;20205;-78
2022/01/18 14:07:09;;;;;;;20.80;15.10;;;3.60;1.00;;;;;;5093445;28;20275;-78
2022/01/18 14:09:36;;;;;;;25.20;17.00;;;3.50;1.00;;;;;;5094084;28;20233;-77